createdAt,value
2022-08-05T00:01:28.417Z,66.14
2022-08-05T00:03:57.158Z,66.69
2022-08-05T00:06:30.684Z,66.71
2022-08-05T00:09:00.951Z,67.17
2022-08-05T00:11:30.628Z,67.63
2022-08-05T00:14:12.948Z,67.46
2022-08-05T00:16:52.527Z,67.58
2022-08-05T00:19:23.359Z,67.85
2022-08-05T00:21:53.923Z,68.16
2022-08-05T00:24:24.254Z,68.81
2022-08-05T00:26:53.041Z,69.21
2022-08-05T00:29:22.762Z,70.20
2022-08-05T00:32:13.318Z,70.26
2022-08-05T00:34:55.988Z,70.36
2022-08-05T00:37:27.438Z,71.14
2022-08-05T00:40:13.938Z,71.17
2022-08-05T00:42:49.179Z,70.92
2022-08-05T00:45:16.773Z,70.78
2022-08-05T00:47:57.743Z,70.45
2022-08-05T00:50:32.642Z,71.05
2022-08-05T00:52:59.558Z,71.42
2022-08-05T00:55:42.399Z,71.92
2022-08-05T00:58:13.835Z,71.89
2022-08-05T01:00:42.106Z,71.57
2022-08-05T01:03:12.632Z,71.87
2022-08-05T01:05:50.214Z,72.64
2022-08-05T01:08:40.885Z,73.04
2022-08-05T01:11:11.368Z,73.46
2022-08-05T01:13:58.346Z,73.96
2022-08-05T01:16:52.534Z,76.36
2022-08-05T01:19:22.294Z,76.13
2022-08-05T01:22:24.254Z,75.17
2022-08-05T01:25:39.998Z,74.85
2022-08-05T01:28:46.174Z,74.42
2022-08-05T01:31:44.564Z,74.57
2022-08-05T01:34:36.314Z,74.34
2022-08-05T01:37:25.101Z,73.35
2022-08-05T01:39:59.082Z,73.13
2022-08-05T01:42:28.114Z,73.74
2022-08-05T01:45:02.425Z,73.21
2022-08-05T01:47:39.546Z,73.88
2022-08-05T01:50:19.089Z,74.58
2022-08-05T01:52:59.992Z,74.91
2022-08-05T01:55:29.509Z,74.83
2022-08-05T01:58:18.801Z,74.15
2022-08-05T02:00:50.458Z,74.38
2022-08-05T02:03:34.151Z,74.60
2022-08-05T02:06:23.937Z,75.03
2022-08-05T02:08:58.627Z,75.05
2022-08-05T02:11:33.464Z,74.89
2022-08-05T02:14:13.211Z,75.31
2022-08-05T02:16:46.608Z,75.40
2022-08-05T02:19:34.169Z,75.68
2022-08-05T02:22:27.281Z,75.70
2022-08-05T02:25:08.683Z,75.65
2022-08-05T02:27:59.172Z,76.08
2022-08-05T02:30:35.240Z,77.00
2022-08-05T02:33:03.780Z,76.66
2022-08-05T02:35:37.822Z,76.68
2022-08-05T02:38:19.159Z,77.09
2022-08-05T02:40:46.860Z,76.69
2022-08-05T02:43:15.473Z,77.12
2022-08-05T02:45:52.451Z,78.30
2022-08-05T02:48:29.479Z,78.55
2022-08-05T02:51:00.156Z,79.64
2022-08-05T02:53:29.191Z,79.65
2022-08-05T02:56:08.295Z,79.51
2022-08-05T02:58:37.034Z,79.90
2022-08-05T03:01:19.544Z,80.30
2022-08-05T03:04:03.083Z,80.82
2022-08-05T03:06:56.334Z,80.93
2022-08-05T03:09:36.281Z,81.30
2022-08-05T03:12:05.894Z,81.63
2022-08-05T03:14:32.607Z,82.42
2022-08-05T03:16:59.858Z,82.37
2022-08-05T03:19:34.579Z,82.49
2022-08-05T03:22:05.111Z,81.87
2022-08-05T03:24:47.026Z,81.89
2022-08-05T03:27:14.158Z,81.29
2022-08-05T03:29:45.551Z,81.10
2022-08-05T03:32:30.677Z,80.66
2022-08-05T03:34:58.038Z,80.06
2022-08-05T03:37:25.128Z,79.81
2022-08-05T03:39:59.487Z,79.48
2022-08-05T03:42:32.099Z,79.12
2022-08-05T03:44:59.275Z,79.38
2022-08-05T03:47:30.375Z,78.83
2022-08-05T03:50:01.972Z,78.36
2022-08-05T03:52:49.156Z,78.00
2022-08-05T03:56:05.970Z,77.95
2022-08-05T03:58:22.924Z,77.89
2022-08-05T04:00:57.946Z,77.62
2022-08-05T04:03:29.233Z,76.11
2022-08-05T04:05:57.917Z,75.64
2022-08-05T04:08:34.758Z,75.36
2022-08-05T04:11:05.259Z,75.29
2022-08-05T04:13:50.336Z,75.18
2022-08-05T04:16:24.996Z,74.80
2022-08-05T04:18:54.180Z,74.32
2022-08-05T04:22:10.006Z,74.78
2022-08-05T04:24:08.852Z,74.57
2022-08-05T04:26:35.916Z,74.38
2022-08-05T04:29:07.366Z,73.79
2022-08-05T04:31:38.537Z,72.28
2022-08-05T04:34:31.450Z,72.30
2022-08-05T04:36:53.140Z,70.98
2022-08-05T04:39:20.771Z,70.05
2022-08-05T04:41:50.987Z,70.15
2022-08-05T04:44:29.051Z,69.89
2022-08-05T04:47:09.060Z,70.00
2022-08-05T04:50:01.381Z,69.59
2022-08-05T04:52:23.428Z,68.84
2022-08-05T04:54:54.158Z,68.18
2022-08-05T04:57:29.082Z,68.17
2022-08-05T04:59:58.432Z,67.32
2022-08-05T05:02:36.679Z,66.50
2022-08-05T05:05:16.518Z,65.27
2022-08-05T05:07:56.654Z,65.30
2022-08-05T05:10:29.535Z,65.38
2022-08-05T05:12:56.754Z,64.58
2022-08-05T05:15:56.211Z,64.59
2022-08-05T05:18:31.559Z,64.37
2022-08-05T05:21:00.426Z,63.47
2022-08-05T05:23:27.092Z,63.91
2022-08-05T05:26:13.698Z,63.00
2022-08-05T05:28:42.874Z,62.42
2022-08-05T05:31:11.886Z,61.92
2022-08-05T05:33:43.394Z,61.09
2022-08-05T05:36:25.150Z,60.30
2022-08-05T05:38:57.233Z,59.97
2022-08-05T05:41:24.163Z,58.50
2022-08-05T05:43:58.362Z,57.59
2022-08-05T05:46:27.042Z,57.98
2022-08-05T05:48:53.700Z,58.45
2022-08-05T05:51:24.512Z,61.88
2022-08-05T05:53:57.239Z,61.70
2022-08-05T05:56:33.021Z,62.36
2022-08-05T05:59:06.762Z,62.02
2022-08-05T06:01:38.061Z,61.49
2022-08-05T06:04:07.260Z,61.66
2022-08-05T06:06:34.695Z,62.77
2022-08-05T06:09:03.829Z,62.28
2022-08-05T06:11:30.976Z,61.63
2022-08-05T06:13:58.048Z,61.09
2022-08-05T06:16:36.973Z,60.72
2022-08-05T06:19:07.905Z,61.56
2022-08-05T06:21:37.856Z,61.17
2022-08-05T06:24:12.133Z,61.03
2022-08-05T06:26:51.747Z,61.92
2022-08-05T06:29:26.488Z,61.00
2022-08-05T06:32:21.256Z,59.02
2022-08-05T06:34:57.113Z,58.07
2022-08-05T06:37:56.301Z,57.45
2022-08-05T06:40:18.521Z,57.28
2022-08-05T06:42:51.639Z,56.99
2022-08-05T06:45:21.277Z,56.24
2022-08-05T06:48:36.988Z,55.21
2022-08-05T06:50:53.019Z,54.80
2022-08-05T06:53:28.035Z,53.23
2022-08-05T06:55:55.992Z,52.85
2022-08-05T06:58:35.033Z,52.47
2022-08-05T07:01:05.028Z,48.39
2022-08-05T07:03:33.338Z,48.18
2022-08-05T07:06:06.101Z,45.26
2022-08-05T07:08:47.534Z,43.99
2022-08-05T07:11:15.933Z,44.13
2022-08-05T07:14:02.187Z,44.80
2022-08-05T07:18:08.589Z,44.84
2022-08-05T07:22:28.307Z,43.05
2022-08-05T07:25:23.339Z,43.71
2022-08-05T07:27:57.992Z,43.28
2022-08-05T07:30:32.162Z,41.52
2022-08-05T07:33:00.121Z,41.13
2022-08-05T07:36:02.656Z,40.43
2022-08-05T07:38:32.493Z,41.71
2022-08-05T07:41:16.778Z,42.14
2022-08-05T07:43:49.910Z,40.80
2022-08-05T07:46:24.709Z,39.67
2022-08-05T07:49:01.428Z,40.30
2022-08-05T07:51:36.159Z,39.95
2022-08-05T07:54:04.975Z,40.57
2022-08-05T07:57:00.202Z,39.83
2022-08-05T07:59:21.870Z,39.98
2022-08-05T08:01:52.195Z,39.38
2022-08-05T08:04:37.487Z,38.50
2022-08-05T08:07:07.242Z,38.63
2022-08-05T08:09:34.666Z,37.69
2022-08-05T08:12:09.158Z,37.72
2022-08-05T08:14:46.548Z,37.72
2022-08-05T08:17:16.082Z,39.15
2022-08-05T08:20:22.899Z,37.97
2022-08-05T08:22:32.320Z,37.79
2022-08-05T08:25:02.783Z,37.72
2022-08-05T08:27:35.818Z,37.81
2022-08-05T08:30:28.479Z,38.23
2022-08-05T08:33:02.752Z,38.36
2022-08-05T08:35:35.246Z,38.93
2022-08-05T08:38:11.640Z,38.10
2022-08-05T08:40:46.726Z,37.92
2022-08-05T08:45:20.047Z,38.15
2022-08-05T08:46:06.436Z,37.17
2022-08-05T08:49:03.251Z,36.09
2022-08-05T08:52:03.171Z,35.82
2022-08-05T08:54:18.295Z,35.81
2022-08-05T08:56:47.638Z,35.43
2022-08-05T08:59:20.703Z,35.48
2022-08-05T09:01:57.425Z,35.42
2022-08-05T09:04:30.157Z,36.28
2022-08-05T09:06:57.545Z,34.98
2022-08-05T09:09:25.215Z,35.48
2022-08-05T09:11:54.809Z,35.53
2022-08-05T09:14:56.575Z,35.63
2022-08-05T09:17:40.950Z,34.79
2022-08-05T09:20:05.247Z,36.09
2022-08-05T09:23:05.037Z,35.49
2022-08-05T09:25:59.803Z,36.46
2022-08-05T09:28:31.561Z,35.72
2022-08-05T09:31:22.753Z,35.07
2022-08-05T09:34:01.450Z,34.21
2022-08-05T09:36:55.034Z,34.61
2022-08-05T09:39:39.137Z,34.83
2022-08-05T09:42:17.348Z,34.69
2022-08-05T09:44:51.737Z,34.22
2022-08-05T09:47:20.826Z,34.14
2022-08-05T09:50:01.350Z,33.29
2022-08-05T09:52:34.707Z,34.33
2022-08-05T09:55:56.965Z,32.98
2022-08-05T09:57:58.587Z,32.28
2022-08-05T10:00:26.917Z,33.86
2022-08-05T10:02:54.942Z,35.10
2022-08-05T10:05:28.276Z,33.73
2022-08-05T10:08:36.009Z,33.49
2022-08-05T10:10:48.244Z,34.34
2022-08-05T10:13:47.133Z,33.79
2022-08-05T10:16:42.056Z,33.41
2022-08-05T10:19:23.481Z,32.71
2022-08-05T10:21:59.198Z,31.35
2022-08-05T10:24:27.194Z,31.00
2022-08-05T10:27:00.576Z,31.08
2022-08-05T10:30:40.931Z,30.46
2022-08-05T10:32:53.604Z,30.08
2022-08-05T10:35:03.639Z,31.11
2022-08-05T10:37:40.220Z,32.74
2022-08-05T10:40:31.857Z,32.36
2022-08-05T10:43:06.774Z,31.08
2022-08-05T10:45:40.178Z,31.05
2022-08-05T10:48:52.904Z,31.47
2022-08-05T10:51:28.401Z,30.45
2022-08-05T10:54:02.052Z,31.35
2022-08-05T10:56:57.654Z,31.80
2022-08-05T11:00:02.517Z,31.63
2022-08-05T11:02:34.602Z,31.70
2022-08-05T11:05:09.342Z,31.07
2022-08-05T11:08:02.817Z,31.24
2022-08-05T11:10:33.277Z,30.53
2022-08-05T11:13:01.176Z,30.83
2022-08-05T11:16:00.960Z,30.73
2022-08-05T11:18:32.672Z,30.97
2022-08-05T11:21:06.253Z,29.96
2022-08-05T11:24:04.387Z,29.42
2022-08-05T11:26:43.137Z,30.61
2022-08-05T11:29:37.296Z,30.39
2022-08-05T11:32:29.512Z,30.76
2022-08-05T11:34:57.488Z,31.45
2022-08-05T11:38:29.409Z,31.50
2022-08-05T11:41:34.795Z,30.96
2022-08-05T11:44:06.621Z,31.62
2022-08-05T11:46:58.583Z,32.01
2022-08-05T11:49:28.105Z,31.46
2022-08-05T11:51:55.137Z,31.33
2022-08-05T11:54:36.601Z,30.93
2022-08-05T11:57:08.607Z,30.58
2022-08-05T11:59:51.664Z,30.21
2022-08-05T12:02:29.751Z,30.59
2022-08-05T12:05:01.454Z,32.23
2022-08-05T12:08:08.220Z,31.71
2022-08-05T12:10:43.128Z,30.42
2022-08-05T12:13:16.701Z,31.39
2022-08-05T12:15:49.627Z,31.93
2022-08-05T12:18:32.846Z,31.78
2022-08-05T12:21:15.279Z,31.90
2022-08-05T12:24:05.144Z,31.64
2022-08-05T12:26:34.120Z,31.49
2022-08-05T12:29:01.494Z,32.17
2022-08-05T12:31:43.671Z,30.31
2022-08-05T12:34:21.439Z,29.75
2022-08-05T12:36:53.457Z,28.89
2022-08-05T12:39:20.650Z,29.54
2022-08-05T12:41:47.424Z,30.62
2022-08-05T12:44:28.711Z,31.00
2022-08-05T12:47:01.818Z,30.12
2022-08-05T12:50:03.895Z,30.00
2022-08-05T12:52:32.301Z,29.49
2022-08-05T12:55:17.024Z,28.62
2022-08-05T12:58:52.626Z,27.35
2022-08-05T13:02:01.734Z,25.22
2022-08-05T13:03:18.205Z,24.81
2022-08-05T13:05:47.956Z,26.51
2022-08-05T13:08:19.959Z,28.95
2022-08-05T13:10:50.639Z,30.34
2022-08-05T13:14:04.608Z,30.88
2022-08-05T13:16:13.112Z,28.67
2022-08-05T13:18:59.726Z,27.97
2022-08-05T13:21:28.300Z,28.03
2022-08-05T13:24:05.439Z,27.40
2022-08-05T13:26:33.298Z,27.44
2022-08-05T13:29:00.693Z,26.75
2022-08-05T13:31:33.870Z,26.86
2022-08-05T13:34:20.956Z,27.34
2022-08-05T13:36:50.486Z,26.55
2022-08-05T13:39:24.564Z,26.59
2022-08-05T13:42:04.394Z,25.83
2022-08-05T13:44:32.661Z,24.74
2022-08-05T13:47:08.762Z,25.57
2022-08-05T13:49:36.351Z,25.91
2022-08-05T13:52:13.346Z,29.15
2022-08-05T13:54:40.519Z,30.25
2022-08-05T13:57:08.447Z,30.69
2022-08-05T13:59:37.346Z,30.76
2022-08-05T14:02:26.668Z,31.36
2022-08-05T14:05:12.032Z,31.33
2022-08-05T14:07:59.815Z,31.90
2022-08-05T14:10:31.273Z,31.63
2022-08-05T14:12:59.636Z,30.92
2022-08-05T14:16:05.784Z,31.03
2022-08-05T14:18:18.633Z,31.59
2022-08-05T14:20:54.552Z,31.63
2022-08-05T14:23:24.704Z,32.87
2022-08-05T14:25:54.585Z,32.99
2022-08-05T14:28:26.763Z,33.43
2022-08-05T14:30:54.834Z,32.89
2022-08-05T14:33:24.162Z,31.58
2022-08-05T14:35:51.622Z,31.19
2022-08-05T14:38:33.365Z,31.14
2022-08-05T14:41:05.946Z,30.33
2022-08-05T14:44:00.122Z,30.35
2022-08-05T14:46:22.609Z,30.68
2022-08-05T14:48:55.381Z,31.18
2022-08-05T14:51:22.157Z,30.73
2022-08-05T14:54:26.929Z,31.16
2022-08-05T14:56:44.018Z,30.28
2022-08-05T14:59:12.752Z,29.80
2022-08-05T15:01:49.209Z,30.17
2022-08-05T15:04:22.261Z,29.05
2022-08-05T15:06:52.700Z,29.02
2022-08-05T15:09:52.223Z,29.38
2022-08-05T15:12:09.026Z,29.96
2022-08-05T15:14:42.232Z,30.58
2022-08-05T15:17:46.021Z,30.44
2022-08-05T15:20:04.587Z,30.34
2022-08-05T15:22:31.283Z,30.46
2022-08-05T15:24:59.302Z,31.08
2022-08-05T15:27:26.693Z,31.14
2022-08-05T15:30:02.743Z,30.85
2022-08-05T15:32:29.823Z,32.14
2022-08-05T15:34:58.365Z,33.44
2022-08-05T15:38:33.218Z,34.54
2022-08-05T15:41:00.647Z,34.68
2022-08-05T15:43:08.068Z,34.81
2022-08-05T15:45:45.647Z,35.67
2022-08-05T15:48:14.427Z,35.75
2022-08-05T15:50:43.654Z,34.97
2022-08-05T15:53:12.633Z,35.20
2022-08-05T15:56:04.239Z,34.46
2022-08-05T15:58:28.241Z,34.96
2022-08-05T16:01:11.693Z,35.22
2022-08-05T16:03:42.574Z,35.52
2022-08-05T16:06:11.314Z,35.61
2022-08-05T16:08:38.839Z,35.54
2022-08-05T16:11:07.107Z,36.07
2022-08-05T16:13:35.316Z,36.44
2022-08-05T16:16:04.923Z,35.74
2022-08-05T16:18:33.163Z,35.07
2022-08-05T16:21:04.620Z,34.67
2022-08-05T16:23:53.180Z,33.61
2022-08-05T16:26:18.875Z,33.87
2022-08-05T16:28:53.011Z,33.44
2022-08-05T16:31:21.582Z,33.41
2022-08-05T16:33:48.987Z,31.79
2022-08-05T16:36:20.439Z,32.45
2022-08-05T16:38:55.200Z,31.94
2022-08-05T16:42:12.723Z,32.73
2022-08-05T16:44:11.562Z,32.61
2022-08-05T16:46:41.140Z,32.76
2022-08-05T16:49:10.098Z,32.01
2022-08-05T16:51:50.258Z,32.94
2022-08-05T16:54:24.900Z,32.16
2022-08-05T16:56:54.140Z,32.64
2022-08-05T16:59:20.899Z,33.32
2022-08-05T17:01:54.925Z,33.66
2022-08-05T17:04:27.296Z,35.11
2022-08-05T17:06:55.938Z,35.77
2022-08-05T17:09:27.709Z,36.98
2022-08-05T17:11:59.683Z,36.98
2022-08-05T17:14:37.422Z,37.37
2022-08-05T17:17:14.505Z,38.40
2022-08-05T17:19:45.630Z,38.70
2022-08-05T17:22:24.672Z,39.00
2022-08-05T17:24:58.304Z,39.33
2022-08-05T17:27:33.939Z,39.76
2022-08-05T17:30:02.495Z,39.86
2022-08-05T17:32:30.184Z,40.11
2022-08-05T17:35:00.514Z,40.76
2022-08-05T17:37:41.120Z,40.26
2022-08-05T17:40:12.705Z,40.04
2022-08-05T17:42:42.853Z,40.85
2022-08-05T17:45:20.074Z,40.86
2022-08-05T17:47:53.009Z,40.83
2022-08-05T17:50:28.571Z,40.96
2022-08-05T17:52:59.061Z,42.06
2022-08-05T17:55:34.578Z,42.17
2022-08-05T17:58:06.950Z,42.31
2022-08-05T18:00:36.198Z,42.52
2022-08-05T18:03:07.882Z,42.51
2022-08-05T18:05:36.275Z,42.53
2022-08-05T18:08:03.595Z,42.61
2022-08-05T18:10:32.171Z,43.40
2022-08-05T18:13:01.995Z,44.41
2022-08-05T18:15:35.148Z,44.74
2022-08-05T18:18:11.187Z,45.14
2022-08-05T18:20:38.927Z,45.49
2022-08-05T18:23:09.008Z,45.76
2022-08-05T18:25:39.227Z,46.45
2022-08-05T18:28:07.124Z,45.91
2022-08-05T18:30:36.249Z,45.96
2022-08-05T18:33:06.317Z,46.25
2022-08-05T18:36:00.670Z,46.50
2022-08-05T18:38:26.165Z,47.04
2022-08-05T18:41:53.267Z,48.11
2022-08-05T18:43:43.132Z,48.87
2022-08-05T18:46:15.447Z,49.45
2022-08-05T18:48:46.581Z,50.03
2022-08-05T18:52:02.728Z,50.55
2022-08-05T18:54:19.708Z,50.71
2022-08-05T18:56:51.118Z,50.81
2022-08-05T18:59:42.908Z,51.38
2022-08-05T19:02:11.510Z,51.76
2022-08-05T19:05:01.737Z,52.00
2022-08-05T19:07:45.599Z,52.46
2022-08-05T19:10:13.285Z,52.79
2022-08-05T19:12:40.433Z,52.73
2022-08-05T19:15:25.200Z,53.08
2022-08-05T19:18:08.075Z,53.09
2022-08-05T19:20:41.570Z,53.40
2022-08-05T19:24:04.119Z,53.63
2022-08-05T19:26:01.716Z,53.69
2022-08-05T19:28:30.540Z,53.93
2022-08-05T19:30:57.930Z,54.30
2022-08-05T19:33:35.872Z,54.32
2022-08-05T19:36:06.463Z,54.56
2022-08-05T19:38:35.570Z,54.81
2022-08-05T19:41:07.142Z,55.00
2022-08-05T19:44:06.192Z,55.53
2022-08-05T19:46:30.755Z,55.30
2022-08-05T19:49:01.278Z,55.99
2022-08-05T19:52:05.070Z,56.19
2022-08-05T19:54:26.777Z,56.33
2022-08-05T19:57:06.264Z,57.13
2022-08-05T19:59:55.339Z,57.32
2022-08-05T20:02:23.318Z,57.64
2022-08-05T20:04:50.377Z,57.63
2022-08-05T20:07:47.899Z,57.30
2022-08-05T20:10:13.512Z,57.48
2022-08-05T20:12:47.521Z,58.02
2022-08-05T20:15:48.707Z,57.69
2022-08-05T20:18:10.617Z,58.39
2022-08-05T20:20:56.216Z,58.44
2022-08-05T20:23:39.987Z,59.25
2022-08-05T20:26:15.986Z,59.65
2022-08-05T20:28:48.585Z,59.26
2022-08-05T20:31:16.574Z,59.23
2022-08-05T20:33:44.709Z,59.17
2022-08-05T20:36:11.862Z,59.90
2022-08-05T20:38:53.421Z,60.73
2022-08-05T20:41:26.755Z,60.49
2022-08-05T20:43:59.155Z,60.77
2022-08-05T20:46:29.536Z,61.36
2022-08-05T20:48:56.264Z,61.68
2022-08-05T20:51:23.215Z,62.00
2022-08-05T20:53:56.809Z,62.50
2022-08-05T20:56:30.892Z,62.71
2022-08-05T20:59:14.309Z,62.63
2022-08-05T21:01:47.045Z,62.87
2022-08-05T21:04:14.105Z,62.55
2022-08-05T21:06:45.126Z,62.82
2022-08-05T21:09:14.565Z,62.81
2022-08-05T21:12:06.938Z,62.86
2022-08-05T21:14:35.320Z,62.96
2022-08-05T21:17:05.150Z,62.89
2022-08-05T21:19:46.570Z,63.37
2022-08-05T21:22:18.504Z,63.41
2022-08-05T21:24:51.691Z,63.30
2022-08-05T21:27:20.630Z,63.27
2022-08-05T21:29:52.244Z,65.13
2022-08-05T21:32:20.967Z,64.68
2022-08-05T21:35:08.237Z,65.26
2022-08-05T21:37:41.220Z,65.97
2022-08-05T21:40:13.064Z,65.78
2022-08-05T21:42:44.544Z,65.93
2022-08-05T21:45:13.634Z,65.58
2022-08-05T21:47:56.325Z,66.31
2022-08-05T21:50:26.187Z,66.42
2022-08-05T21:52:53.217Z,66.32
2022-08-05T21:56:00.821Z,65.93
2022-08-05T21:58:10.311Z,66.59
2022-08-05T22:00:38.406Z,66.46
2022-08-05T22:03:06.939Z,67.17
2022-08-05T22:05:48.673Z,67.76
2022-08-05T22:08:22.230Z,68.24
2022-08-05T22:10:51.586Z,67.87
2022-08-05T22:14:33.136Z,67.93
2022-08-05T22:16:20.455Z,67.85
2022-08-05T22:18:53.926Z,67.60
2022-08-05T22:21:25.523Z,67.66
2022-08-05T22:24:13.217Z,67.87
2022-08-05T22:27:17.475Z,68.67
2022-08-05T22:29:44.501Z,68.89
2022-08-05T22:32:12.686Z,68.58
2022-08-05T22:34:44.331Z,68.30
2022-08-05T22:37:12.684Z,68.93
2022-08-05T22:39:39.461Z,68.85
2022-08-05T22:42:12.129Z,69.00
2022-08-05T22:44:42.597Z,69.78
2022-08-05T22:47:29.970Z,69.16
2022-08-05T22:50:19.930Z,69.54
2022-08-05T22:52:45.197Z,70.05
2022-08-05T22:55:19.180Z,70.50
2022-08-05T22:57:47.284Z,70.75
2022-08-05T23:00:17.873Z,70.65
2022-08-05T23:02:48.189Z,70.96
2022-08-05T23:05:15.564Z,71.16
2022-08-05T23:07:48.613Z,71.19
2022-08-05T23:10:20.124Z,71.44
2022-08-05T23:12:51.516Z,71.43
2022-08-05T23:15:22.145Z,71.26
2022-08-05T23:18:00.970Z,70.84
2022-08-05T23:20:30.170Z,71.10
2022-08-05T23:22:58.778Z,71.60
2022-08-05T23:25:52.435Z,71.96
2022-08-05T23:28:12.937Z,71.73
2022-08-05T23:30:43.761Z,72.44
2022-08-05T23:33:25.661Z,72.50
2022-08-05T23:35:55.816Z,73.05
2022-08-05T23:38:24.269Z,73.63
2022-08-05T23:40:52.847Z,74.35
2022-08-05T23:43:25.648Z,75.03
2022-08-05T23:46:21.440Z,75.33
2022-08-05T23:48:59.912Z,77.27
2022-08-05T23:51:53.567Z,77.65
2022-08-05T23:54:26.700Z,77.57
2022-08-05T23:57:04.051Z,78.11
